createdAt,value
2023-01-03T00:04:47.389Z,1.20
2023-01-03T00:09:51.820Z,1.10
2023-01-03T00:14:54.624Z,2.10
2023-01-03T00:19:57.303Z,2.00
2023-01-03T00:25:00.178Z,2.20
2023-01-03T00:30:02.998Z,1.40
2023-01-03T00:35:06.823Z,1.50
2023-01-03T00:40:10.760Z,1.30
2023-01-03T00:45:17.705Z,1.20
2023-01-03T00:50:22.598Z,1.60
2023-01-03T00:55:25.350Z,1.80
2023-01-03T01:00:28.127Z,1.30
2023-01-03T01:05:31.450Z,1.70
2023-01-03T01:10:34.244Z,1.50
2023-01-03T01:15:39.255Z,1.50
2023-01-03T01:20:41.978Z,1.60
2023-01-03T01:25:44.724Z,1.70
2023-01-03T01:30:47.430Z,2.10
2023-01-03T01:35:50.179Z,2.10
2023-01-03T01:40:52.832Z,2.00
2023-01-03T01:45:55.606Z,4.90
2023-01-03T01:50:58.729Z,2.40
2023-01-03T01:56:09.843Z,2.40
2023-01-03T02:01:14.813Z,2.90
2023-01-03T02:06:18.547Z,1.70
2023-01-03T02:12:17.821Z,2.00
2023-01-03T02:17:56.444Z,2.20
2023-01-03T02:23:17.203Z,2.40
2023-01-03T02:28:47.305Z,1.50
2023-01-03T02:34:05.744Z,1.90
2023-01-03T02:39:41.047Z,2.80
2023-01-03T02:44:56.428Z,1.80
2023-01-03T02:50:04.522Z,2.60
2023-01-03T02:55:16.461Z,2.20
2023-01-03T03:00:24.253Z,1.90
2023-01-03T03:05:32.409Z,2.90
2023-01-03T03:10:54.480Z,2.10
2023-01-03T03:15:59.766Z,2.20
2023-01-03T03:21:23.421Z,1.80
2023-01-03T03:26:32.673Z,1.10
2023-01-03T03:31:40.698Z,2.80
2023-01-03T03:36:55.066Z,1.50
2023-01-03T03:42:35.161Z,1.90
2023-01-03T03:47:38.558Z,1.60
2023-01-03T03:52:46.594Z,2.30
2023-01-03T03:58:00.000Z,1.00
2023-01-03T04:03:06.038Z,3.70
2023-01-03T04:08:09.118Z,2.70
2023-01-03T04:13:12.161Z,2.20
2023-01-03T04:18:14.831Z,2.80
2023-01-03T04:23:17.539Z,2.80
2023-01-03T04:28:20.530Z,4.00
2023-01-03T04:33:23.194Z,1.70
2023-01-03T04:38:26.469Z,2.40
2023-01-03T04:43:47.993Z,2.10
2023-01-03T04:48:50.788Z,2.30
2023-01-03T04:53:53.585Z,1.40
2023-01-03T04:58:56.675Z,2.50
2023-01-03T05:04:01.452Z,3.50
2023-01-03T05:09:04.334Z,2.10
2023-01-03T05:14:12.428Z,4.40
2023-01-03T05:19:17.109Z,1.90
2023-01-03T05:24:38.785Z,2.10
2023-01-03T05:29:41.794Z,5.90
2023-01-03T05:34:44.647Z,3.50
2023-01-03T05:39:47.316Z,2.60
2023-01-03T05:44:49.957Z,2.10
2023-01-03T05:49:52.658Z,3.00
2023-01-03T05:54:55.312Z,4.10
2023-01-03T05:59:58.053Z,1.50
2023-01-03T06:05:00.786Z,2.80
2023-01-03T06:10:05.318Z,1.80
2023-01-03T06:15:08.764Z,2.70
2023-01-03T06:20:11.824Z,3.70
2023-01-03T06:25:14.802Z,3.30
2023-01-03T06:30:18.230Z,5.30
2023-01-03T06:35:20.980Z,1.90
2023-01-03T06:40:24.044Z,2.70
2023-01-03T06:45:45.457Z,4.90
2023-01-03T06:51:07.027Z,4.30
2023-01-03T06:56:10.448Z,5.20
2023-01-03T07:01:14.936Z,3.80
2023-01-03T07:06:17.730Z,2.90
2023-01-03T07:11:23.785Z,2.60
2023-01-03T07:16:41.585Z,1.30
2023-01-03T07:21:45.329Z,2.80
2023-01-03T07:26:48.106Z,3.10
2023-01-03T07:31:50.824Z,2.20
2023-01-03T07:36:53.632Z,2.50
2023-01-03T07:42:15.084Z,2.40
2023-01-03T07:47:17.829Z,6.90
2023-01-03T07:52:20.733Z,3.30
2023-01-03T07:57:23.479Z,3.20
2023-01-03T08:02:26.423Z,4.10
2023-01-03T08:07:30.121Z,2.90
2023-01-03T08:12:51.660Z,1.90
2023-01-03T08:17:54.390Z,2.30
2023-01-03T08:22:59.904Z,3.50
2023-01-03T08:28:03.712Z,3.60
2023-01-03T08:33:10.266Z,3.10
2023-01-03T08:38:18.099Z,1.90
2023-01-03T08:43:21.180Z,2.60
2023-01-03T08:48:24.679Z,3.20
2023-01-03T08:53:28.938Z,3.40
2023-01-03T08:58:31.712Z,4.50
2023-01-03T09:03:34.623Z,2.00
2023-01-03T09:08:37.502Z,1.70
2023-01-03T09:13:40.973Z,5.30
2023-01-03T09:18:43.800Z,3.40
2023-01-03T09:23:46.480Z,3.90
2023-01-03T09:28:49.269Z,2.60
2023-01-03T09:33:52.128Z,2.10
2023-01-03T09:38:55.520Z,3.90
2023-01-03T09:44:07.332Z,1.40
2023-01-03T09:49:13.883Z,2.20
2023-01-03T09:54:37.246Z,5.70
2023-01-03T09:59:59.348Z,4.00
2023-01-03T10:05:29.119Z,4.00
2023-01-03T10:10:41.518Z,4.60
2023-01-03T10:16:01.738Z,8.00
2023-01-03T10:21:09.266Z,2.50
2023-01-03T10:26:13.290Z,4.30
2023-01-03T10:31:47.381Z,3.40
2023-01-03T10:36:50.646Z,1.10
2023-01-03T10:42:08.388Z,3.10
2023-01-03T10:47:28.914Z,3.30
2023-01-03T10:52:38.451Z,2.20
2023-01-03T10:57:55.099Z,3.00
2023-01-03T11:03:17.585Z,4.00
2023-01-03T11:08:37.282Z,3.20
2023-01-03T11:13:41.808Z,3.10
2023-01-03T11:19:00.508Z,1.80
2023-01-03T11:24:31.572Z,7.60
2023-01-03T11:29:55.665Z,1.90
2023-01-03T11:35:25.542Z,3.20
2023-01-03T11:41:07.696Z,1.90
2023-01-03T11:46:33.804Z,3.50
2023-01-03T11:51:49.662Z,2.10
2023-01-03T11:56:53.434Z,2.80
2023-01-03T12:02:17.460Z,4.50
2023-01-03T12:13:07.568Z,3.00
2023-01-03T12:18:13.117Z,3.40
2023-01-03T12:23:30.448Z,2.10
2023-01-03T12:28:48.057Z,4.90
2023-01-03T12:34:08.840Z,2.40
2023-01-03T12:39:33.354Z,3.50
2023-01-03T12:44:43.536Z,5.40
2023-01-03T12:50:03.481Z,2.20
2023-01-03T12:55:31.531Z,2.70
2023-01-03T13:00:52.749Z,4.30
2023-01-03T13:06:03.305Z,4.90
2023-01-03T13:11:14.625Z,5.10
2023-01-03T13:16:50.924Z,3.90
2023-01-03T13:21:53.636Z,5.10
2023-01-03T13:27:21.476Z,3.60
2023-01-03T13:32:24.206Z,1.50
2023-01-03T13:37:36.591Z,8.80
2023-01-03T13:42:40.922Z,2.70
2023-01-03T13:47:47.358Z,8.10
2023-01-03T13:53:25.457Z,4.50
2023-01-03T13:58:30.706Z,9.50
2023-01-03T14:03:58.502Z,5.00
2023-01-03T14:09:16.635Z,3.80
2023-01-03T14:14:24.176Z,7.70
2023-01-03T14:19:34.412Z,4.30
2023-01-03T14:24:37.240Z,4.50
2023-01-03T14:29:42.826Z,8.40
2023-01-03T14:34:45.700Z,4.80
2023-01-03T14:40:00.186Z,4.70
2023-01-03T14:45:06.603Z,5.10
2023-01-03T14:50:19.497Z,6.50
2023-01-03T14:55:27.408Z,4.40
2023-01-03T15:00:34.573Z,4.00
2023-01-03T15:05:40.709Z,6.30
2023-01-03T15:11:04.183Z,4.10
2023-01-03T15:16:22.507Z,6.00
2023-01-03T15:21:25.382Z,3.50
2023-01-03T15:26:40.582Z,6.90
2023-01-03T15:31:54.491Z,5.80
2023-01-03T15:37:10.285Z,4.70
2023-01-03T15:42:44.558Z,3.70
2023-01-03T15:47:50.177Z,4.80
2023-01-03T15:52:52.930Z,8.10
2023-01-03T15:57:56.548Z,3.60
2023-01-03T16:02:59.847Z,6.10
2023-01-03T16:08:06.244Z,4.30
2023-01-03T16:13:10.052Z,9.20
2023-01-03T16:18:17.978Z,7.00
2023-01-03T16:23:30.113Z,14.00
2023-01-03T16:28:33.391Z,9.80
2023-01-03T16:33:38.152Z,14.20
2023-01-03T16:38:40.856Z,13.00
2023-01-03T16:43:43.563Z,17.50
2023-01-03T16:48:52.405Z,9.00
2023-01-03T16:53:56.847Z,5.90
2023-01-03T16:58:59.548Z,2.40
2023-01-03T17:04:02.279Z,4.60
2023-01-03T17:09:28.181Z,5.40
2023-01-03T17:14:36.365Z,5.30
2023-01-03T17:25:02.135Z,6.30
2023-01-03T17:30:07.184Z,10.20
2023-01-03T17:35:13.970Z,4.90
2023-01-03T17:40:32.992Z,10.00
2023-01-03T17:45:54.881Z,11.00
2023-01-03T17:50:58.738Z,10.00
2023-01-03T17:56:01.851Z,11.30
2023-01-03T18:01:08.089Z,4.20
2023-01-03T18:06:16.772Z,6.80
2023-01-03T18:11:22.130Z,7.30
2023-01-03T18:16:24.934Z,6.90
2023-01-03T18:21:28.319Z,4.50
2023-01-03T18:26:38.062Z,4.90
2023-01-03T18:31:42.247Z,8.10
2023-01-03T18:36:47.845Z,7.00
2023-01-03T18:41:50.587Z,6.60
2023-01-03T18:46:53.486Z,4.70
2023-01-03T18:51:58.417Z,4.40
2023-01-03T18:57:01.203Z,6.40
2023-01-03T19:02:14.163Z,4.80
2023-01-03T19:07:29.031Z,5.20
2023-01-03T19:12:39.210Z,5.30
2023-01-03T19:17:42.124Z,5.30
2023-01-03T19:22:47.514Z,6.30
2023-01-03T19:27:53.417Z,4.60
2023-01-03T19:32:58.011Z,6.10
2023-01-03T19:38:00.791Z,6.10
2023-01-03T19:43:04.280Z,6.30
2023-01-03T19:48:19.939Z,2.60
2023-01-03T19:53:22.621Z,5.10
2023-01-03T19:58:29.633Z,3.70
2023-01-03T20:03:42.987Z,7.70
2023-01-03T20:08:47.207Z,6.10
2023-01-03T20:13:49.966Z,3.00
2023-01-03T20:18:52.808Z,7.50
2023-01-03T20:24:01.674Z,6.00
2023-01-03T20:29:05.500Z,10.80
2023-01-03T20:34:10.025Z,9.60
2023-01-03T20:39:36.445Z,8.10
2023-01-03T20:44:39.276Z,8.70
2023-01-03T20:49:43.149Z,9.50
2023-01-03T20:54:45.904Z,10.40
2023-01-03T20:59:48.704Z,11.70
2023-01-03T21:04:51.395Z,10.30
2023-01-03T21:09:54.052Z,12.10
2023-01-03T21:14:56.729Z,9.40
2023-01-03T21:19:59.412Z,10.40
2023-01-03T21:25:02.121Z,15.80
2023-01-03T21:30:05.616Z,8.90
2023-01-03T21:35:13.130Z,7.20
2023-01-03T21:40:29.853Z,11.00
2023-01-03T21:45:41.470Z,8.00
2023-01-03T21:50:46.931Z,7.50
2023-01-03T21:55:50.400Z,12.70
2023-01-03T22:00:53.146Z,8.70
2023-01-03T22:06:06.248Z,11.40
2023-01-03T22:11:09.086Z,6.70
2023-01-03T22:16:11.866Z,6.40
2023-01-03T22:21:14.691Z,8.60
2023-01-03T22:26:18.012Z,6.10
2023-01-03T22:31:24.623Z,6.30
2023-01-03T22:36:27.398Z,8.50
2023-01-03T22:41:30.093Z,6.30
2023-01-03T22:46:33.036Z,8.90
2023-01-03T22:51:35.742Z,7.90
2023-01-03T22:56:38.562Z,6.80
2023-01-03T23:01:41.347Z,6.40
2023-01-03T23:06:44.102Z,6.10
2023-01-03T23:12:05.482Z,5.30
2023-01-03T23:17:26.967Z,7.20
2023-01-03T23:22:29.633Z,5.70
2023-01-03T23:27:32.289Z,9.30
2023-01-03T23:32:34.968Z,6.50
2023-01-03T23:37:38.349Z,4.70
2023-01-03T23:42:41.186Z,6.20
2023-01-03T23:47:43.885Z,9.80
2023-01-03T23:52:46.685Z,8.30
2023-01-03T23:57:49.381Z,11.10
